createdAt,value
2022-12-04T00:01:08.974Z,101232.66
2022-12-04T00:03:36.496Z,101224.97
2022-12-04T00:06:13.844Z,101226.53
2022-12-04T00:08:40.831Z,101223.97
2022-12-04T00:11:09.009Z,101218.53
2022-12-04T00:13:36.128Z,101222.28
2022-12-04T00:16:07.877Z,101223.81
2022-12-04T00:18:35.393Z,101212.63
2022-12-04T00:21:06.452Z,101218.34
2022-12-04T00:23:33.941Z,101224.22
2022-12-04T00:26:02.633Z,101212.25
2022-12-04T00:28:29.089Z,101207.00
2022-12-04T00:30:55.908Z,101213.31
2022-12-04T00:33:22.860Z,101208.56
2022-12-04T00:35:56.114Z,101204.94
2022-12-04T00:38:22.575Z,101209.66
2022-12-04T00:40:50.859Z,101209.06
2022-12-04T00:43:17.638Z,101191.44
2022-12-04T00:45:44.094Z,101201.28
2022-12-04T00:48:10.709Z,101201.00
2022-12-04T00:50:37.560Z,101211.66
2022-12-04T00:53:04.292Z,101198.97
2022-12-04T00:55:30.768Z,101201.69
2022-12-04T00:57:59.879Z,101204.19
2022-12-04T01:00:26.708Z,101211.63
2022-12-04T01:02:53.136Z,101206.31
2022-12-04T01:05:19.781Z,101216.00
2022-12-04T01:07:46.240Z,101204.00
2022-12-04T01:10:13.460Z,101198.09
2022-12-04T01:12:39.889Z,101204.34
2022-12-04T01:15:06.821Z,101199.91
2022-12-04T01:17:33.265Z,101204.66
2022-12-04T01:19:59.697Z,101204.66
2022-12-04T01:22:26.126Z,101187.69
2022-12-04T01:24:56.402Z,101185.03
2022-12-04T01:27:23.755Z,101194.47
2022-12-04T01:29:50.330Z,101187.38
2022-12-04T01:32:16.921Z,101188.69
2022-12-04T01:34:43.470Z,101193.75
2022-12-04T01:37:09.898Z,101185.81
2022-12-04T01:39:37.295Z,101194.47
2022-12-04T01:42:05.033Z,101175.69
2022-12-04T01:44:32.370Z,101188.63
2022-12-04T01:47:00.949Z,101181.53
2022-12-04T01:49:41.318Z,101178.81
2022-12-04T01:52:15.942Z,101169.31
2022-12-04T01:54:46.102Z,101177.28
2022-12-04T01:57:18.599Z,101174.59
2022-12-04T01:59:55.902Z,101176.22
2022-12-04T02:02:27.504Z,101175.22
2022-12-04T02:04:54.421Z,101175.16
2022-12-04T02:07:20.887Z,101171.03
2022-12-04T02:09:53.904Z,101172.66
2022-12-04T02:12:36.760Z,101164.13
2022-12-04T02:15:21.270Z,101175.44
2022-12-04T02:17:59.376Z,101170.69
2022-12-04T02:20:56.760Z,101173.28
2022-12-04T02:23:48.198Z,101167.41
2022-12-04T02:26:29.495Z,101171.91
2022-12-04T02:29:08.901Z,101171.13
2022-12-04T02:31:51.981Z,101166.66
2022-12-04T02:34:45.790Z,101167.84
2022-12-04T02:37:30.470Z,101160.44
2022-12-04T02:40:16.848Z,101160.50
2022-12-04T02:43:03.471Z,101151.31
2022-12-04T02:45:36.695Z,101165.97
2022-12-04T02:48:07.599Z,101146.19
2022-12-04T02:50:39.392Z,101153.28
2022-12-04T02:53:10.432Z,101147.25
2022-12-04T02:55:49.427Z,101156.13
2022-12-04T02:58:21.517Z,101159.63
2022-12-04T03:00:49.313Z,101164.72
2022-12-04T03:03:27.665Z,101145.56
2022-12-04T03:06:05.569Z,101154.94
2022-12-04T03:08:40.348Z,101152.97
2022-12-04T03:11:06.847Z,101147.94
2022-12-04T03:13:42.966Z,101153.13
2022-12-04T03:16:33.403Z,101141.84
2022-12-04T03:19:12.064Z,101151.56
2022-12-04T03:21:46.658Z,101147.41
2022-12-04T03:24:15.218Z,101149.00
2022-12-04T03:26:55.680Z,101153.88
2022-12-04T03:29:34.291Z,101150.31
2022-12-04T03:32:25.197Z,101148.56
2022-12-04T03:35:05.398Z,101135.94
2022-12-04T03:38:00.643Z,101131.09
2022-12-04T03:40:30.984Z,101124.72
2022-12-04T03:43:05.875Z,101134.44
2022-12-04T03:45:47.288Z,101137.63
2022-12-04T03:48:25.813Z,101127.41
2022-12-04T03:51:07.436Z,101125.06
2022-12-04T03:53:41.693Z,101137.97
2022-12-04T03:56:15.863Z,101136.72
2022-12-04T03:58:48.714Z,101140.47
2022-12-04T04:01:20.104Z,101129.31
2022-12-04T04:03:51.024Z,101130.72
2022-12-04T04:06:30.729Z,101138.91
2022-12-04T04:09:01.983Z,101126.66
2022-12-04T04:11:38.778Z,101130.44
2022-12-04T04:14:40.254Z,101123.97
2022-12-04T04:17:34.936Z,101127.06
2022-12-04T04:20:27.606Z,101128.00
2022-12-04T04:23:16.933Z,101125.09
2022-12-04T04:25:45.595Z,101122.81
2022-12-04T04:28:31.866Z,101130.84
2022-12-04T04:31:30.666Z,101117.69
2022-12-04T04:34:02.950Z,101123.47
2022-12-04T04:36:51.119Z,101134.56
2022-12-04T04:39:55.115Z,101125.56
2022-12-04T04:42:29.833Z,101134.94
2022-12-04T04:45:12.363Z,101131.88
2022-12-04T04:47:47.460Z,101134.22
2022-12-04T04:50:15.808Z,101125.81
2022-12-04T04:52:46.695Z,101119.47
2022-12-04T04:55:16.154Z,101127.56
2022-12-04T04:57:43.143Z,101126.66
2022-12-04T05:00:15.902Z,101123.91
2022-12-04T05:02:43.080Z,101121.97
2022-12-04T05:05:09.877Z,101128.53
2022-12-04T05:07:36.459Z,101135.09
2022-12-04T05:10:03.327Z,101138.78
2022-12-04T05:12:29.748Z,101138.50
2022-12-04T05:14:56.152Z,101137.72
2022-12-04T05:17:22.746Z,101150.06
2022-12-04T05:19:56.728Z,101141.41
2022-12-04T05:22:32.074Z,101138.19
2022-12-04T05:24:59.171Z,101137.88
2022-12-04T05:27:26.948Z,101137.91
2022-12-04T05:29:55.333Z,101131.91
2022-12-04T05:32:23.804Z,101128.13
2022-12-04T05:34:51.763Z,101131.31
2022-12-04T05:37:18.945Z,101120.50
2022-12-04T05:39:45.939Z,101121.66
2022-12-04T05:42:12.942Z,101119.41
2022-12-04T05:44:39.470Z,101126.84
2022-12-04T05:47:06.424Z,101124.50
2022-12-04T05:49:34.072Z,101119.13
2022-12-04T05:52:02.033Z,101123.63
2022-12-04T05:54:28.458Z,101133.59
2022-12-04T05:56:54.910Z,101128.06
2022-12-04T05:59:21.931Z,101123.72
2022-12-04T06:01:48.482Z,101126.69
2022-12-04T06:04:14.950Z,101128.00
2022-12-04T06:06:41.456Z,101143.53
2022-12-04T06:09:08.902Z,101131.56
2022-12-04T06:11:38.626Z,101139.78
2022-12-04T06:14:08.425Z,101135.78
2022-12-04T06:16:38.820Z,101140.19
2022-12-04T06:19:08.148Z,101142.81
2022-12-04T06:21:37.176Z,101137.69
2022-12-04T06:24:04.453Z,101142.47
2022-12-04T06:26:30.959Z,101133.25
2022-12-04T06:28:59.033Z,101139.53
2022-12-04T06:31:27.532Z,101142.50
2022-12-04T06:33:56.084Z,101144.00
2022-12-04T06:36:23.490Z,101137.69
2022-12-04T06:38:51.773Z,101141.00
2022-12-04T06:41:20.405Z,101158.94
2022-12-04T06:43:46.939Z,101154.69
2022-12-04T06:46:16.168Z,101145.38
2022-12-04T06:48:43.111Z,101152.56
2022-12-04T06:51:21.198Z,101155.78
2022-12-04T06:53:48.268Z,101155.25
2022-12-04T06:56:18.139Z,101158.22
2022-12-04T06:58:49.750Z,101160.03
2022-12-04T07:01:20.743Z,101163.44
2022-12-04T07:03:51.617Z,101158.34
2022-12-04T07:06:27.080Z,101158.50
2022-12-04T07:08:57.772Z,101163.19
2022-12-04T07:11:24.381Z,101168.00
2022-12-04T07:13:51.512Z,101168.84
2022-12-04T07:16:21.393Z,101181.47
2022-12-04T07:18:50.394Z,101179.09
2022-12-04T07:21:19.622Z,101173.22
2022-12-04T07:23:53.203Z,101179.06
2022-12-04T07:26:20.720Z,101170.41
2022-12-04T07:28:47.701Z,101166.31
2022-12-04T07:31:17.088Z,101166.13
2022-12-04T07:33:44.517Z,101172.91
2022-12-04T07:36:17.568Z,101172.28
2022-12-04T07:38:44.142Z,101165.13
2022-12-04T07:41:12.708Z,101155.06
2022-12-04T07:43:39.837Z,101178.50
2022-12-04T07:46:13.619Z,101168.09
2022-12-04T07:48:40.730Z,101169.19
2022-12-04T07:51:09.902Z,101155.59
2022-12-04T07:53:36.871Z,101169.41
2022-12-04T07:56:07.383Z,101154.41
2022-12-04T07:58:34.579Z,101150.94
2022-12-04T08:01:09.858Z,101156.38
2022-12-04T08:03:37.564Z,101151.91
2022-12-04T08:06:07.375Z,101145.06
2022-12-04T08:08:34.933Z,101145.66
2022-12-04T08:11:05.976Z,101150.03
2022-12-04T08:13:32.428Z,101136.53
2022-12-04T08:16:02.343Z,101148.47
2022-12-04T08:18:28.848Z,101159.78
2022-12-04T08:20:55.278Z,101175.38
2022-12-04T08:23:21.776Z,101166.34
2022-12-04T08:25:48.237Z,101173.38
2022-12-04T08:28:14.640Z,101165.56
2022-12-04T08:30:41.087Z,101161.50
2022-12-04T08:33:07.542Z,101165.91
2022-12-04T08:35:34.097Z,101174.53
2022-12-04T08:38:03.462Z,101172.59
2022-12-04T08:40:29.884Z,101163.66
2022-12-04T08:42:56.295Z,101161.50
2022-12-04T08:45:22.747Z,101172.88
2022-12-04T08:47:52.451Z,101170.41
2022-12-04T08:50:19.281Z,101175.19
2022-12-04T08:52:45.726Z,101166.09
2022-12-04T08:55:12.141Z,101171.69
2022-12-04T08:57:38.547Z,101187.03
2022-12-04T09:00:05.699Z,101184.53
2022-12-04T09:02:32.111Z,101193.94
2022-12-04T09:04:58.624Z,101181.66
2022-12-04T09:07:25.093Z,101188.00
2022-12-04T09:09:51.486Z,101182.22
2022-12-04T09:12:17.997Z,101176.84
2022-12-04T09:14:44.462Z,101180.16
2022-12-04T09:17:10.933Z,101179.91
2022-12-04T09:19:37.460Z,101175.28
2022-12-04T09:22:03.890Z,101168.28
2022-12-04T09:24:30.931Z,101172.03
2022-12-04T09:26:57.525Z,101174.88
2022-12-04T09:29:25.603Z,101176.31
2022-12-04T09:31:52.062Z,101173.13
2022-12-04T09:34:18.504Z,101170.50
2022-12-04T09:36:45.086Z,101166.16
2022-12-04T09:39:11.580Z,101167.28
2022-12-04T09:42:01.922Z,101168.22
2022-12-04T09:44:44.061Z,101163.56
2022-12-04T09:47:22.538Z,101162.59
2022-12-04T09:50:09.179Z,101168.09
2022-12-04T09:52:38.581Z,101167.69
2022-12-04T09:55:12.210Z,101160.78
2022-12-04T09:57:43.657Z,101163.03
2022-12-04T10:00:16.100Z,101156.03
2022-12-04T10:02:49.173Z,101169.34
2022-12-04T10:05:37.665Z,101156.91
2022-12-04T10:08:25.115Z,101155.66
2022-12-04T10:11:06.421Z,101157.56
2022-12-04T10:13:43.335Z,101149.47
2022-12-04T10:16:22.056Z,101147.66
2022-12-04T10:19:21.351Z,101156.47
2022-12-04T10:22:03.722Z,101153.81
2022-12-04T10:24:44.991Z,101147.00
2022-12-04T10:27:25.484Z,101150.41
2022-12-04T10:30:29.743Z,101156.91
2022-12-04T10:33:32.253Z,101155.44
2022-12-04T10:35:59.319Z,101160.56
2022-12-04T10:38:37.912Z,101156.03
2022-12-04T10:41:22.439Z,101151.78
2022-12-04T10:43:50.120Z,101145.81
2022-12-04T10:46:28.835Z,101149.53
2022-12-04T10:49:01.507Z,101147.69
2022-12-04T10:51:35.494Z,101139.00
2022-12-04T10:54:01.969Z,101133.16
2022-12-04T10:56:28.361Z,101133.09
2022-12-04T10:59:03.332Z,101122.88
2022-12-04T11:01:32.352Z,101127.88
2022-12-04T11:04:07.668Z,101118.44
2022-12-04T11:06:35.446Z,101116.41
2022-12-04T11:09:03.755Z,101116.66
2022-12-04T11:11:33.115Z,101108.34
2022-12-04T11:14:03.704Z,101105.56
2022-12-04T11:16:40.307Z,101106.84
2022-12-04T11:19:24.857Z,101104.22
2022-12-04T11:21:54.505Z,101103.31
2022-12-04T11:24:23.081Z,101093.63
2022-12-04T11:26:50.629Z,101099.69
2022-12-04T11:29:20.360Z,101101.13
2022-12-04T11:31:55.345Z,101094.16
2022-12-04T11:34:27.231Z,101093.31
2022-12-04T11:36:57.852Z,101086.69
2022-12-04T11:39:40.651Z,101095.66
2022-12-04T11:42:13.053Z,101096.78
2022-12-04T11:44:40.439Z,101096.50
2022-12-04T11:47:17.240Z,101085.59
2022-12-04T11:49:44.105Z,101098.94
2022-12-04T11:52:32.087Z,101083.47
2022-12-04T11:55:43.326Z,101094.31
2022-12-04T11:58:30.957Z,101088.97
2022-12-04T12:01:34.545Z,101084.94
2022-12-04T12:04:18.981Z,101078.50
2022-12-04T12:07:07.688Z,101089.59
2022-12-04T12:10:03.463Z,101088.91
2022-12-04T12:12:49.595Z,101092.84
2022-12-04T12:15:50.193Z,101093.16
2022-12-04T12:18:29.789Z,101097.09
2022-12-04T12:21:10.338Z,101089.66
2022-12-04T12:24:01.175Z,101095.13
2022-12-04T12:26:40.303Z,101096.38
2022-12-04T12:29:28.533Z,101090.13
2022-12-04T12:32:20.151Z,101087.78
2022-12-04T12:34:47.561Z,101082.91
2022-12-04T12:37:23.893Z,101077.53
2022-12-04T12:39:56.117Z,101080.84
2022-12-04T12:42:28.726Z,101072.19
2022-12-04T12:45:24.440Z,101074.50
2022-12-04T12:47:56.450Z,101063.28
2022-12-04T12:50:32.050Z,101063.38
2022-12-04T12:53:03.434Z,101056.22
2022-12-04T12:55:47.292Z,101070.69
2022-12-04T12:58:42.913Z,101059.84
2022-12-04T13:01:19.702Z,101065.34
2022-12-04T13:03:49.208Z,101062.25
2022-12-04T13:06:27.175Z,101054.03
2022-12-04T13:09:02.595Z,101051.72
2022-12-04T13:11:30.790Z,101056.09
2022-12-04T13:14:05.146Z,101051.50
2022-12-04T13:16:34.886Z,101052.78
2022-12-04T13:19:18.588Z,101047.53
2022-12-04T13:22:15.213Z,101044.34
2022-12-04T13:24:55.355Z,101039.78
2022-12-04T13:27:59.282Z,101043.25
2022-12-04T13:30:52.049Z,101034.78
2022-12-04T13:33:58.939Z,101028.84
2022-12-04T13:36:31.099Z,101021.03
2022-12-04T13:39:09.687Z,101021.22
2022-12-04T13:41:38.907Z,101034.03
2022-12-04T13:44:18.171Z,101037.00
2022-12-04T13:46:59.414Z,101025.78
2022-12-04T13:49:28.898Z,101025.91
2022-12-04T13:51:57.050Z,101027.25
2022-12-04T13:54:35.628Z,101032.03
2022-12-04T13:57:22.223Z,101021.66
2022-12-04T13:59:49.549Z,101024.09
2022-12-04T14:02:28.036Z,101022.16
2022-12-04T14:05:10.258Z,101011.53
2022-12-04T14:07:42.651Z,101010.63
2022-12-04T14:10:15.131Z,101010.97
2022-12-04T14:12:49.891Z,101004.19
2022-12-04T14:15:25.732Z,101008.19
2022-12-04T14:18:04.594Z,101003.03
2022-12-04T14:20:33.634Z,101005.22
2022-12-04T14:23:22.496Z,101003.81
2022-12-04T14:25:51.149Z,101003.22
2022-12-04T14:28:37.323Z,100998.84
2022-12-04T14:31:33.149Z,101003.44
2022-12-04T14:34:08.548Z,101001.53
2022-12-04T14:36:41.084Z,101004.38
2022-12-04T14:39:26.079Z,101009.34
2022-12-04T14:42:03.739Z,100999.78
2022-12-04T14:44:31.891Z,101000.91
2022-12-04T14:47:15.176Z,101007.66
2022-12-04T14:49:57.825Z,101001.84
2022-12-04T14:52:31.455Z,101002.22
2022-12-04T14:55:28.815Z,100986.81
2022-12-04T14:58:29.095Z,100981.13
2022-12-04T15:00:58.411Z,100995.41
2022-12-04T15:03:26.612Z,100981.72
2022-12-04T15:06:02.681Z,100976.50
2022-12-04T15:08:29.246Z,100986.66
2022-12-04T15:11:14.436Z,100993.66
2022-12-04T15:13:41.375Z,100991.69
2022-12-04T15:16:17.720Z,100989.53
2022-12-04T15:19:00.894Z,100989.94
2022-12-04T15:21:38.780Z,100999.25
2022-12-04T15:24:23.255Z,100992.06
2022-12-04T15:26:52.913Z,100990.06
2022-12-04T15:29:27.400Z,100990.88
2022-12-04T15:31:57.851Z,100998.75
2022-12-04T15:34:48.070Z,100993.41
2022-12-04T15:37:22.786Z,100998.22
2022-12-04T15:39:52.464Z,100997.31
2022-12-04T15:42:27.389Z,100991.09
2022-12-04T15:45:00.692Z,100993.78
2022-12-04T15:47:33.122Z,100993.91
2022-12-04T15:50:17.853Z,100989.59
2022-12-04T15:52:58.520Z,101001.13
2022-12-04T15:55:27.948Z,101003.09
2022-12-04T15:57:57.738Z,101010.34
2022-12-04T16:00:34.206Z,101010.34
2022-12-04T16:03:01.026Z,101015.75
2022-12-04T16:05:32.738Z,101015.72
2022-12-04T16:08:02.980Z,101019.09
2022-12-04T16:10:35.270Z,101021.13
2022-12-04T16:13:04.245Z,101020.09
2022-12-04T16:15:39.858Z,101021.53
2022-12-04T16:18:09.602Z,101019.38
2022-12-04T16:20:37.513Z,101020.03
2022-12-04T16:23:04.812Z,101031.28
2022-12-04T16:25:31.740Z,101029.00
2022-12-04T16:27:59.685Z,101024.16
2022-12-04T16:30:28.116Z,101024.03
2022-12-04T16:32:54.657Z,101025.56
2022-12-04T16:35:21.578Z,101031.69
2022-12-04T16:37:48.067Z,101023.63
2022-12-04T16:40:14.948Z,101028.25
2022-12-04T16:42:42.914Z,101022.69
2022-12-04T16:45:24.331Z,101023.34
2022-12-04T16:47:50.837Z,101027.03
2022-12-04T16:50:17.301Z,101022.47
2022-12-04T16:52:43.799Z,101023.19
2022-12-04T16:55:39.707Z,101036.25
2022-12-04T16:58:06.394Z,101035.72
2022-12-04T17:00:32.883Z,101038.63
2022-12-04T17:02:59.543Z,101043.03
2022-12-04T17:05:29.081Z,101040.13
2022-12-04T17:07:55.916Z,101033.59
2022-12-04T17:10:24.229Z,101035.09
2022-12-04T17:12:54.032Z,101029.66
2022-12-04T17:15:20.614Z,101026.97
2022-12-04T17:17:47.474Z,101031.13
2022-12-04T17:20:19.455Z,101020.44
2022-12-04T17:22:45.922Z,101027.84
2022-12-04T17:25:12.438Z,101032.06
2022-12-04T17:27:39.338Z,101032.78
2022-12-04T17:30:07.577Z,101035.81
2022-12-04T17:32:37.353Z,101033.00
2022-12-04T17:35:05.673Z,101039.50
2022-12-04T17:37:33.401Z,101030.84
2022-12-04T17:39:59.826Z,101033.88
2022-12-04T17:42:26.566Z,101035.97
2022-12-04T17:44:53.064Z,101042.91
2022-12-04T17:47:19.631Z,101041.19
2022-12-04T17:49:46.069Z,101034.47
2022-12-04T17:52:12.615Z,101029.84
2022-12-04T17:54:39.116Z,101033.75
2022-12-04T17:57:05.518Z,101034.13
2022-12-04T17:59:31.949Z,101028.88
2022-12-04T18:01:58.404Z,101027.94
2022-12-04T18:04:25.013Z,101036.53
2022-12-04T18:06:52.619Z,101038.06
2022-12-04T18:09:19.183Z,101028.91
2022-12-04T18:11:47.683Z,101033.31
2022-12-04T18:14:17.626Z,101021.59
2022-12-04T18:16:52.849Z,101021.66
2022-12-04T18:19:26.887Z,101016.81
2022-12-04T18:21:56.887Z,101030.13
2022-12-04T18:24:24.947Z,101026.00
2022-12-04T18:26:51.769Z,101023.00
2022-12-04T18:29:22.079Z,101023.22
2022-12-04T18:31:48.864Z,101028.88
2022-12-04T18:34:15.735Z,101020.75
2022-12-04T18:36:42.259Z,101019.50
2022-12-04T18:39:14.223Z,101028.19
2022-12-04T18:41:41.196Z,101029.88
2022-12-04T18:44:08.133Z,101028.28
2022-12-04T18:46:34.706Z,101026.66
2022-12-04T18:49:01.726Z,101026.63
2022-12-04T18:51:34.361Z,101025.16
2022-12-04T18:54:06.949Z,101025.47
2022-12-04T18:56:35.551Z,101024.00
2022-12-04T18:59:14.719Z,101025.56
2022-12-04T19:01:42.511Z,101028.03
2022-12-04T19:04:11.007Z,101027.69
2022-12-04T19:06:38.715Z,101017.75
2022-12-04T19:09:08.344Z,101019.03
2022-12-04T19:11:35.503Z,101021.78
2022-12-04T19:14:06.605Z,101023.47
2022-12-04T19:16:36.986Z,101028.38
2022-12-04T19:19:03.527Z,101025.25
2022-12-04T19:21:30.087Z,101021.81
2022-12-04T19:23:59.778Z,101018.22
2022-12-04T19:26:28.289Z,101011.63
2022-12-04T19:28:55.566Z,101007.25
2022-12-04T19:31:25.443Z,101015.03
2022-12-04T19:33:54.930Z,101006.06
2022-12-04T19:36:21.467Z,101004.88
2022-12-04T19:38:47.985Z,101005.91
2022-12-04T19:41:18.536Z,101007.59
2022-12-04T19:43:50.615Z,101015.41
2022-12-04T19:46:21.296Z,101018.22
2022-12-04T19:48:49.641Z,101025.56
2022-12-04T19:51:19.193Z,101029.75
2022-12-04T19:53:46.915Z,101026.34
2022-12-04T19:56:16.466Z,101031.34
2022-12-04T19:58:43.476Z,101022.50
2022-12-04T20:01:16.208Z,101028.34
2022-12-04T20:03:43.030Z,101029.06
2022-12-04T20:06:12.515Z,101026.94
2022-12-04T20:08:39.056Z,101025.03
2022-12-04T20:11:15.634Z,101024.03
2022-12-04T20:13:42.720Z,101022.16
2022-12-04T20:16:11.579Z,101027.38
2022-12-04T20:18:39.906Z,101021.25
2022-12-04T20:21:10.961Z,101020.16
2022-12-04T20:23:38.829Z,101008.91
2022-12-04T20:26:07.322Z,101018.03
2022-12-04T20:28:34.443Z,101025.56
2022-12-04T20:31:01.127Z,101019.44
2022-12-04T20:33:27.647Z,101020.16
2022-12-04T20:35:55.414Z,101019.00
2022-12-04T20:38:21.844Z,101016.75
2022-12-04T20:40:48.357Z,101021.38
2022-12-04T20:43:14.784Z,101010.41
2022-12-04T20:45:41.269Z,101014.16
2022-12-04T20:48:07.818Z,101016.16
2022-12-04T20:50:34.249Z,101014.91
2022-12-04T20:53:00.739Z,101013.03
2022-12-04T20:55:27.159Z,101016.75
2022-12-04T20:57:53.616Z,101013.44
2022-12-04T21:00:20.141Z,101018.47
2022-12-04T21:02:46.642Z,101013.16
2022-12-04T21:05:13.193Z,101012.75
2022-12-04T21:07:39.677Z,101012.53
2022-12-04T21:10:06.979Z,101010.19
2022-12-04T21:12:52.197Z,101005.97
2022-12-04T21:15:37.145Z,101005.03
2022-12-04T21:18:03.847Z,101002.03
2022-12-04T21:22:55.475Z,100994.38
2022-12-04T21:25:21.964Z,100996.09
2022-12-04T21:27:48.445Z,100990.81
2022-12-04T21:30:14.966Z,100969.31
2022-12-04T21:32:41.384Z,100981.22
2022-12-04T21:35:08.162Z,100977.59
2022-12-04T21:37:34.925Z,100976.41
2022-12-04T21:40:01.669Z,100971.84
2022-12-04T21:42:31.139Z,100971.72
2022-12-04T21:45:01.724Z,100973.94
2022-12-04T21:47:29.092Z,100964.50
2022-12-04T21:49:56.232Z,100971.53
2022-12-04T21:52:22.977Z,100964.59
2022-12-04T21:54:51.326Z,100969.69
2022-12-04T21:57:18.034Z,100974.31
2022-12-04T21:59:44.723Z,100972.88
2022-12-04T22:02:13.005Z,100956.63
2022-12-04T22:04:40.128Z,100974.53
2022-12-04T22:07:06.735Z,100973.38
2022-12-04T22:09:33.354Z,100963.78
2022-12-04T22:11:59.785Z,100973.03
2022-12-04T22:14:26.608Z,100965.38
2022-12-04T22:16:54.209Z,100966.13
2022-12-04T22:19:20.799Z,100974.50
2022-12-04T22:21:47.486Z,100981.50
2022-12-04T22:24:13.897Z,100981.47
2022-12-04T22:26:40.369Z,100973.09
2022-12-04T22:29:26.985Z,100984.03
2022-12-04T22:31:54.002Z,100977.72
2022-12-04T22:34:20.651Z,100967.03
2022-12-04T22:36:48.953Z,100968.31
2022-12-04T22:39:15.418Z,100978.66
2022-12-04T22:41:41.950Z,100980.09
2022-12-04T22:44:08.374Z,100966.88
2022-12-04T22:46:34.914Z,100977.34
2022-12-04T22:49:01.480Z,100972.41
2022-12-04T22:51:28.673Z,100969.47
2022-12-04T22:53:57.830Z,100963.53
2022-12-04T22:56:27.317Z,100956.38
2022-12-04T22:58:54.637Z,100950.53
2022-12-04T23:01:30.104Z,100962.44
2022-12-04T23:03:56.838Z,100957.63
2022-12-04T23:06:26.136Z,100962.06
2022-12-04T23:09:01.753Z,100956.59
2022-12-04T23:11:28.962Z,100953.03
2022-12-04T23:14:03.507Z,100958.91
2022-12-04T23:16:32.288Z,100960.22
2022-12-04T23:18:59.381Z,100957.44
2022-12-04T23:21:26.826Z,100957.97
2022-12-04T23:23:54.140Z,100962.63
2022-12-04T23:26:24.201Z,100957.66
2022-12-04T23:28:50.738Z,100958.78
2022-12-04T23:31:17.733Z,100959.72
2022-12-04T23:33:44.473Z,100955.84
2022-12-04T23:36:13.102Z,100966.31
2022-12-04T23:38:41.201Z,100953.78
2022-12-04T23:41:11.467Z,100957.75
2022-12-04T23:43:38.979Z,100956.03
2022-12-04T23:46:11.001Z,100960.69
2022-12-04T23:48:38.935Z,100956.66
2022-12-04T23:51:05.775Z,100953.84
2022-12-04T23:53:32.233Z,100958.75
2022-12-04T23:56:10.847Z,100953.69
2022-12-04T23:58:37.927Z,100948.19
